Terminal Aerodrome Forecast
Issued by NWS

Home | Current Version | Previous Version | Text Only | Print | Product List | Glossary On
Versions: 1 2 3 4 5 6 7 8 9 10 11 12 13 14 15 16 17 18 19 20 21 22 23 24 25
000
FTAK31 PAJN 302339
TAFAWG
TAF
PAWG 302339Z 3100/3124 09006KT 6SM -RA SCT020 BKN035 OVC050
     FM310300 VRB04KT 5SM -RA BKN020 OVC040
     FM310900 11009KT 4SM -SHRA BR OVC015
     FM311800 12005KT 5SM -SHRA BR OVC025
     FM312100 12008KT P6SM -SHRA BKN025 OVC050
      AMD LTD TO CLD VIS AND WIND 3106/3115=

USA.gov is the U.S. government's official web portal to all federal, state and local government web resources and services.